Terminal Aerodrome Forecast
Issued by NWS

Home | Current Version | Previous Version | Text Only | Print | Product List | Glossary On
Versions: 1 2 3 4 5 6 7 8 9 10 11 12 13 14 15 16 17 18 19 20
612
FTUS44 KBMX 051121
TAFEET
TAF
KEET 051121Z 0512/0612 34005KT P6SM SKC
     FM051500 31015G22KT P6SM SKC
      TEMPO 0518/0521 32018G28KT SCT050
     FM060100 34010KT P6SM SKC
     FM060300 33005KT P6SM SKC=

USA.gov is the U.S. government's official web portal to all federal, state and local government web resources and services.